Time;durP1;ratioP1;P1;durP2;ratioP2;P2;SDS_P1;SDS_P2;PMS_P1;PMS_P2;Temp;Humidity;BMP_temperature;BMP_pressure;BME280_temperature;BME280_humidity;BME280_pressure;Samples;Min_cycle;Max_cycle;Signal;HPM_P1;HPM_P2
2021/01/31 00:00:24;;;;;;;444.00;37.77;;;4.20;99.90;;;;;;5093648;28;20426;-68
2021/01/31 00:02:51;;;;;;;448.87;38.03;;;4.20;99.90;;;;;;5093608;28;20433;-69
2021/01/31 00:05:19;;;;;;;375.13;28.90;;;4.20;99.90;;;;;;5093607;28;20474;-69
2021/01/31 00:07:45;;;;;;;367.30;31.47;;;4.20;99.90;;;;;;5093175;28;20429;-69
2021/01/31 00:10:15;;;;;;;370.53;40.00;;;4.20;99.90;;;;;;5093691;28;20522;-69
2021/01/31 00:12:41;;;;;;;358.93;32.50;;;4.20;99.90;;;;;;5093361;28;20432;-68
2021/01/31 00:15:12;;;;;;;181.00;20.00;;;4.10;99.90;;;;;;5093279;28;20468;-69
2021/01/31 00:17:40;;;;;;;208.13;20.90;;;4.20;99.90;;;;;;5093322;28;20926;-68
2021/01/31 00:20:08;;;;;;;341.17;32.00;;;4.20;99.90;;;;;;5093387;28;20429;-69
2021/01/31 00:22:34;;;;;;;393.43;35.87;;;4.20;99.90;;;;;;5093160;28;20421;-69
2021/01/31 00:25:01;;;;;;;416.47;40.60;;;4.20;99.90;;;;;;5093279;28;20444;-69
2021/01/31 00:27:27;;;;;;;429.50;36.03;;;4.20;99.90;;;;;;5093076;28;20429;-69
2021/01/31 00:29:54;;;;;;;466.10;41.43;;;4.20;99.90;;;;;;5093158;28;20464;-69
2021/01/31 00:32:25;;;;;;;319.53;29.40;;;4.20;99.90;;;;;;5092964;28;20929;-69
2021/01/31 00:34:53;;;;;;;406.20;34.37;;;4.20;99.90;;;;;;5093078;28;20449;-68
2021/01/31 00:37:21;;;;;;;459.80;39.20;;;4.20;99.90;;;;;;5092529;28;20417;-69
2021/01/31 00:39:48;;;;;;;332.27;29.27;;;4.20;99.90;;;;;;5093260;28;20433;-68
2021/01/31 00:42:16;;;;;;;398.97;31.40;;;4.30;99.90;;;;;;5092651;28;20425;-68
2021/01/31 00:44:44;;;;;;;276.00;22.53;;;4.20;99.90;;;;;;5093069;28;20494;-68
2021/01/31 00:47:10;;;;;;;574.13;39.87;;;4.30;99.90;;;;;;5092692;28;20432;-69
2021/01/31 00:49:37;;;;;;;519.67;39.60;;;4.20;99.90;;;;;;5092635;28;20468;-69
2021/01/31 00:52:05;;;;;;;338.67;28.47;;;4.30;99.90;;;;;;5092852;28;20436;-69
2021/01/31 00:54:32;;;;;;;363.50;26.07;;;4.30;99.90;;;;;;5092487;28;20446;-69
2021/01/31 00:56:58;;;;;;;491.03;36.03;;;4.30;99.90;;;;;;5092647;28;20467;-69
2021/01/31 00:59:25;;;;;;;407.27;29.57;;;4.30;99.90;;;;;;5092742;28;20436;-69
2021/01/31 01:01:52;;;;;;;450.57;32.87;;;4.30;99.90;;;;;;5092330;28;20440;-69
2021/01/31 01:04:18;;;;;;;423.80;30.73;;;4.40;99.90;;;;;;5092657;28;20425;-68
2021/01/31 01:06:45;;;;;;;369.83;23.67;;;4.40;99.90;;;;;;5092778;28;20464;-68
2021/01/31 01:09:13;;;;;;;426.47;31.13;;;4.40;99.90;;;;;;5092145;28;20437;-68
2021/01/31 01:11:40;;;;;;;259.63;21.87;;;4.40;99.90;;;;;;5092524;28;20460;-69
2021/01/31 01:14:07;;;;;;;326.20;24.50;;;4.40;99.90;;;;;;5092521;28;20958;-69
2021/01/31 01:16:33;;;;;;;185.80;14.70;;;4.40;99.90;;;;;;5092285;28;20945;-69
2021/01/31 01:19:03;;;;;;;304.37;20.90;;;4.30;99.90;;;;;;5092379;28;20474;-69
2021/01/31 01:21:30;;;;;;;172.87;13.87;;;4.40;99.90;;;;;;5092140;28;20429;-68
2021/01/31 01:23:57;;;;;;;272.30;21.53;;;4.40;99.90;;;;;;5092266;28;20421;-68
2021/01/31 01:26:28;;;;;;;284.20;23.33;;;4.40;99.90;;;;;;5092330;28;20448;-68
2021/01/31 01:28:55;;;;;;;412.23;31.73;;;4.40;99.90;;;;;;5092206;28;20440;-69
2021/01/31 01:31:22;;;;;;;371.20;26.20;;;4.40;99.90;;;;;;5091913;28;20469;-69
2021/01/31 01:33:48;;;;;;;254.30;21.43;;;4.40;99.90;;;;;;5092274;28;20413;-69
2021/01/31 01:36:15;;;;;;;300.40;20.57;;;4.40;99.90;;;;;;5092431;28;20811;-68
2021/01/31 01:38:42;;;;;;;353.57;24.33;;;4.40;99.90;;;;;;5091984;28;20425;-68
2021/01/31 01:41:08;;;;;;;384.93;27.80;;;4.40;99.90;;;;;;5091952;28;20433;-69
2021/01/31 01:43:36;;;;;;;299.80;26.37;;;4.40;99.90;;;;;;5092029;28;20451;-69
2021/01/31 01:46:28;;;;;;;400.13;32.73;;;4.40;99.90;;;;;;5091984;28;20818;-68
2021/01/31 01:48:59;;;;;;;341.87;28.50;;;4.40;99.90;;;;;;5092114;28;20427;-68
2021/01/31 01:51:31;;;;;;;106.70;11.97;;;4.40;99.90;;;;;;5091808;28;20479;-69
2021/01/31 01:54:00;;;;;;;43.67;9.57;;;4.40;99.90;;;;;;5091531;28;20946;-68
2021/01/31 01:56:34;;;;;;;11.50;6.10;;;4.40;99.90;;;;;;5091757;28;20518;-69
2021/01/31 01:59:02;;;;;;;9.77;6.27;;;4.40;99.90;;;;;;5092508;28;20428;-69
2021/01/31 02:01:31;;;;;;;8.40;6.33;;;4.40;99.90;;;;;;5091730;28;20424;-69
2021/01/31 02:04:00;;;;;;;12.90;5.87;;;4.50;99.90;;;;;;5092051;28;20452;-68
2021/01/31 02:06:28;;;;;;;20.23;7.10;;;4.50;99.90;;;;;;5091547;28;20445;-69
2021/01/31 02:08:56;;;;;;;21.03;6.47;;;4.50;99.90;;;;;;5091701;28;20421;-68
2021/01/31 02:11:23;;;;;;;31.77;8.60;;;4.50;99.90;;;;;;5091557;28;20468;-69
2021/01/31 02:13:54;;;;;;;20.57;5.70;;;4.60;99.90;;;;;;5091933;28;20967;-68
2021/01/31 02:16:28;;;;;;;39.87;8.60;;;4.60;99.90;;;;;;5108534;28;20459;-68
2021/01/31 02:19:03;;;;;;;109.93;14.80;;;4.50;99.90;;;;;;5112226;28;20420;-68
2021/01/31 02:21:54;;;;;;;53.00;10.50;;;4.60;99.90;;;;;;5110946;28;20442;-68
2021/01/31 02:24:58;;;;;;;67.37;8.93;;;4.60;99.90;;;;;;5110976;28;20447;-68
2021/01/31 02:27:57;;;;;;;66.93;8.10;;;4.60;99.90;;;;;;5111167;28;20428;-67
2021/01/31 02:30:52;;;;;;;30.10;6.90;;;4.50;99.90;;;;;;5090862;28;20500;-67
2021/01/31 02:33:45;;;;;;;20.10;6.17;;;4.60;99.90;;;;;;5090928;28;20921;-68
2021/01/31 02:36:20;;;;;;;59.80;10.87;;;4.60;99.90;;;;;;5090523;28;20468;-67
2021/01/31 02:38:57;;;;;;;60.67;8.83;;;4.60;99.90;;;;;;5092506;28;20420;-68
2021/01/31 02:41:30;;;;;;;61.47;9.63;;;4.60;99.90;;;;;;5110976;28;20431;-68
2021/01/31 02:43:58;;;;;;;206.07;18.60;;;4.60;99.90;;;;;;5111069;28;20424;-68
2021/01/31 02:46:29;;;;;;;84.00;11.00;;;4.60;99.90;;;;;;5110872;28;20448;-68
2021/01/31 02:49:05;;;;;;;10.60;6.80;;;4.60;99.90;;;;;;5111176;28;20433;-67
2021/01/31 02:51:37;;;;;;;15.23;6.47;;;4.60;99.90;;;;;;5110864;28;20964;-68
2021/01/31 02:54:07;;;;;;;54.27;10.23;;;4.60;99.90;;;;;;5099061;28;20432;-68
2021/01/31 02:56:39;;;;;;;13.80;5.93;;;4.50;99.90;;;;;;5090669;28;20794;-68
2021/01/31 02:59:11;;;;;;;34.03;8.30;;;4.60;99.90;;;;;;5090644;28;20833;-67
2021/01/31 03:01:42;;;;;;;48.57;8.97;;;4.60;99.90;;;;;;5093257;28;20483;-67
2021/01/31 03:04:16;;;;;;;88.23;10.90;;;4.60;99.90;;;;;;5094430;28;20468;-68
2021/01/31 03:06:50;;;;;;;113.93;13.57;;;4.60;99.90;;;;;;5094215;28;20429;-68
2021/01/31 03:09:22;;;;;;;66.83;8.40;;;4.60;99.90;;;;;;5094093;28;20941;-68
2021/01/31 03:11:54;;;;;;;79.50;10.60;;;4.60;99.90;;;;;;5094023;28;20425;-68
2021/01/31 03:14:26;;;;;;;41.47;8.40;;;4.60;99.90;;;;;;5094178;28;20417;-67
2021/01/31 03:16:57;;;;;;;120.47;11.77;;;4.60;99.90;;;;;;5094348;28;20429;-68
2021/01/31 03:19:32;;;;;;;51.03;7.33;;;4.60;99.90;;;;;;5094220;28;20425;-68
2021/01/31 03:22:03;;;;;;;57.30;9.53;;;4.60;99.90;;;;;;5093978;28;20432;-68
2021/01/31 03:24:35;;;;;;;79.73;10.03;;;4.60;99.90;;;;;;5108601;28;20470;-68
2021/01/31 03:27:06;;;;;;;95.53;10.80;;;4.60;99.90;;;;;;5114443;28;20420;-67
2021/01/31 03:29:33;;;;;;;79.33;9.33;;;4.70;99.90;;;;;;5114272;28;20431;-68
2021/01/31 03:32:05;;;;;;;97.67;10.60;;;4.60;99.90;;;;;;5114117;28;20455;-67
2021/01/31 03:34:37;;;;;;;105.83;11.10;;;4.70;99.90;;;;;;5114296;28;20440;-68
2021/01/31 03:37:06;;;;;;;137.07;14.27;;;4.70;99.90;;;;;;5114174;28;20436;-68
2021/01/31 03:39:35;;;;;;;144.03;11.87;;;4.70;99.90;;;;;;5113984;28;20444;-68
2021/01/31 03:42:02;;;;;;;99.57;11.60;;;4.60;99.90;;;;;;5114051;28;20420;-68
2021/01/31 03:44:31;;;;;;;74.47;9.37;;;4.60;99.90;;;;;;5113911;28;20444;-67
2021/01/31 03:47:02;;;;;;;136.80;13.43;;;4.60;99.90;;;;;;5114274;28;20428;-67
2021/01/31 03:49:35;;;;;;;73.53;10.57;;;4.70;99.90;;;;;;5114072;28;20447;-68
2021/01/31 03:52:02;;;;;;;85.33;9.67;;;4.60;99.90;;;;;;5113756;28;20485;-68
2021/01/31 03:54:29;;;;;;;191.33;16.10;;;4.70;99.90;;;;;;5113577;28;20444;-68
2021/01/31 03:57:02;;;;;;;145.43;12.57;;;4.60;99.90;;;;;;5113801;28;20429;-68
2021/01/31 03:59:32;;;;;;;98.83;11.47;;;4.70;99.90;;;;;;5113735;28;20428;-68
2021/01/31 04:02:01;;;;;;;69.70;9.10;;;4.70;99.90;;;;;;5113873;28;20424;-67
2021/01/31 04:04:33;;;;;;;82.93;8.93;;;4.70;99.90;;;;;;5113938;28;20448;-67
2021/01/31 04:07:02;;;;;;;49.73;5.80;;;4.50;99.90;;;;;;5113900;28;20797;-67
2021/01/31 04:09:32;;;;;;;19.40;4.50;;;4.40;99.90;;;;;;5113347;28;20420;-68
2021/01/31 04:12:04;;;;;;;9.00;3.17;;;4.30;99.90;;;;;;5112443;28;20953;-67
2021/01/31 04:14:38;;;;;;;10.70;2.63;;;4.20;99.90;;;;;;5113826;28;20444;-67
2021/01/31 04:17:05;;;;;;;3.43;2.50;;;4.10;99.90;;;;;;5114079;28;20449;-67
2021/01/31 04:19:33;;;;;;;7.63;2.90;;;4.00;99.90;;;;;;5113870;28;20421;-67
2021/01/31 04:21:59;;;;;;;4.23;2.60;;;4.00;99.90;;;;;;5113894;28;20432;-67
2021/01/31 04:24:26;;;;;;;3.47;2.40;;;3.90;99.90;;;;;;5113600;28;21785;-67
2021/01/31 04:26:53;;;;;;;3.10;2.67;;;3.80;99.90;;;;;;5114011;28;20439;-68
2021/01/31 04:29:19;;;;;;;4.40;3.57;;;3.80;99.90;;;;;;5114347;28;20428;-68
2021/01/31 04:31:46;;;;;;;5.80;3.37;;;3.70;99.90;;;;;;5113908;28;20421;-67
2021/01/31 04:34:13;;;;;;;9.90;3.30;;;3.60;99.90;;;;;;5113918;28;20966;-67
2021/01/31 04:36:40;;;;;;;19.33;3.63;;;3.60;99.90;;;;;;5113950;28;20522;-68
2021/01/31 04:39:07;;;;;;;14.20;4.03;;;3.50;99.90;;;;;;5113524;28;20444;-67
2021/01/31 04:41:37;;;;;;;139.93;11.63;;;3.50;99.90;;;;;;5114241;28;20432;-67
2021/01/31 04:44:05;;;;;;;393.43;24.83;;;3.40;99.90;;;;;;5114099;28;20940;-67
2021/01/31 04:46:45;;;;;;;405.67;28.47;;;3.40;99.90;;;;;;5114349;28;20424;-67
2021/01/31 04:49:35;;;;;;;150.17;11.60;;;3.20;99.90;;;;;;5114449;28;20469;-67
2021/01/31 04:52:28;;;;;;;82.27;6.90;;;3.10;99.90;;;;;;5113955;28;20481;-67
2021/01/31 04:55:10;;;;;;;95.77;8.80;;;3.10;99.90;;;;;;5113606;28;20455;-67
2021/01/31 04:57:41;;;;;;;16.37;4.70;;;3.00;99.90;;;;;;5114246;28;20418;-68
2021/01/31 05:00:13;;;;;;;65.47;7.50;;;3.00;99.90;;;;;;5114254;28;20428;-67
2021/01/31 05:02:44;;;;;;;119.33;9.07;;;2.90;99.90;;;;;;5113709;28;20420;-68
2021/01/31 05:05:18;;;;;;;80.10;8.23;;;2.90;99.90;;;;;;5113649;28;20436;-68
2021/01/31 05:07:51;;;;;;;159.77;13.53;;;2.90;99.90;;;;;;5114101;28;20836;-68
2021/01/31 05:10:18;;;;;;;245.40;16.10;;;2.90;99.90;;;;;;5113781;28;20471;-67
2021/01/31 05:12:53;;;;;;;111.87;10.83;;;2.90;99.90;;;;;;5112874;28;20481;-68
2021/01/31 05:15:23;;;;;;;105.53;11.20;;;2.80;99.90;;;;;;5112696;28;20481;-68
2021/01/31 05:17:52;;;;;;;146.60;13.70;;;2.80;99.90;;;;;;5112603;28;20945;-68
2021/01/31 05:20:22;;;;;;;276.10;19.03;;;2.80;99.90;;;;;;5112325;28;20802;-68
2021/01/31 05:22:52;;;;;;;245.77;17.60;;;2.80;99.90;;;;;;5112418;28;20466;-68
2021/01/31 05:25:22;;;;;;;167.27;13.17;;;2.70;99.90;;;;;;5112396;28;20995;-68
2021/01/31 05:27:53;;;;;;;144.03;14.23;;;2.70;99.90;;;;;;5102128;28;20428;-68
2021/01/31 05:30:20;;;;;;;112.80;10.70;;;2.70;99.90;;;;;;5093236;28;20544;-68
2021/01/31 05:33:06;;;;;;;201.00;16.07;;;2.60;99.90;;;;;;5093262;28;20666;-68
2021/01/31 05:35:36;;;;;;;279.07;17.10;;;2.60;99.90;;;;;;5093501;28;20464;-68
2021/01/31 05:38:03;;;;;;;319.67;22.93;;;2.60;99.90;;;;;;5093946;28;20425;-68
2021/01/31 05:40:32;;;;;;;455.43;29.50;;;2.60;99.90;;;;;;5093221;28;20433;-69
2021/01/31 05:43:00;;;;;;;307.30;23.40;;;2.60;99.90;;;;;;5093564;28;20475;-68
2021/01/31 05:45:41;;;;;;;160.13;12.03;;;2.60;99.90;;;;;;5093340;28;20449;-68
2021/01/31 05:48:19;;;;;;;414.03;27.70;;;2.50;99.90;;;;;;5093453;28;20805;-67
2021/01/31 05:50:46;;;;;;;246.23;18.67;;;2.50;99.90;;;;;;5093115;28;20465;-68
2021/01/31 05:53:29;;;;;;;207.47;14.87;;;2.40;99.90;;;;;;5097206;28;20428;-68
2021/01/31 05:56:14;;;;;;;232.17;18.27;;;2.30;99.90;;;;;;5113702;28;20443;-69
2021/01/31 05:58:43;;;;;;;271.13;19.70;;;2.30;99.90;;;;;;5114041;28;20424;-68
2021/01/31 06:01:12;;;;;;;249.43;22.60;;;2.20;99.90;;;;;;5114241;28;20771;-68
2021/01/31 06:03:39;;;;;;;178.20;17.27;;;2.20;99.90;;;;;;5112864;28;20421;-68
2021/01/31 06:06:11;;;;;;;251.50;29.33;;;2.30;99.90;;;;;;5113510;28;20451;-68
2021/01/31 06:08:41;;;;;;;258.80;32.43;;;2.20;99.90;;;;;;5112825;28;20425;-67
2021/01/31 06:11:20;;;;;;;403.17;29.70;;;2.20;99.90;;;;;;5112849;28;20524;-68
2021/01/31 06:13:47;;;;;;;265.83;24.07;;;2.30;99.90;;;;;;5113028;28;20419;-68
2021/01/31 06:16:19;;;;;;;338.00;39.60;;;2.30;99.90;;;;;;5113084;28;20444;-68
2021/01/31 06:18:52;;;;;;;428.70;40.87;;;2.30;99.90;;;;;;5104428;28;20452;-68
2021/01/31 06:21:34;;;;;;;300.23;25.87;;;2.30;99.90;;;;;;5092329;28;20506;-68
2021/01/31 06:24:01;;;;;;;437.33;34.43;;;2.30;99.90;;;;;;5091720;28;20432;-68
2021/01/31 06:26:31;;;;;;;515.70;34.53;;;2.20;99.90;;;;;;5092014;28;20449;-68
2021/01/31 06:29:02;;;;;;;301.63;23.07;;;2.10;99.90;;;;;;5091592;28;20429;-68
2021/01/31 06:31:39;;;;;;;346.17;25.43;;;2.10;99.90;;;;;;5091306;28;20526;-68
2021/01/31 06:34:08;;;;;;;268.33;20.93;;;2.10;99.90;;;;;;5091011;28;20432;-68
2021/01/31 06:36:49;;;;;;;271.43;32.77;;;2.10;99.90;;;;;;5094170;28;20440;-68
2021/01/31 06:39:34;;;;;;;338.87;41.17;;;2.00;99.90;;;;;;5095148;28;20790;-68
2021/01/31 06:42:17;;;;;;;304.33;29.93;;;1.90;99.90;;;;;;5095222;28;20428;-68
2021/01/31 06:44:57;;;;;;;455.73;43.33;;;1.90;99.90;;;;;;5113655;28;20455;-68
2021/01/31 06:48:07;;;;;;;325.93;34.43;;;1.90;99.90;;;;;;5115486;28;20411;-68
2021/01/31 06:50:46;;;;;;;523.50;38.40;;;1.90;99.90;;;;;;5115256;28;20468;-68
2021/01/31 06:53:26;;;;;;;395.43;26.40;;;1.90;99.90;;;;;;5114803;28;20423;-68
2021/01/31 06:56:24;;;;;;;432.80;33.07;;;1.90;99.90;;;;;;5115610;28;20448;-68
2021/01/31 06:59:11;;;;;;;304.37;23.60;;;1.90;99.90;;;;;;5115364;28;20777;-68
2021/01/31 07:01:48;;;;;;;291.80;26.50;;;1.90;99.90;;;;;;5115440;28;20424;-67
2021/01/31 07:04:37;;;;;;;513.10;35.10;;;1.90;99.90;;;;;;5115428;28;20473;-68
2021/01/31 07:07:33;;;;;;;314.20;24.60;;;1.90;99.90;;;;;;5115267;28;20432;-68
2021/01/31 07:10:16;;;;;;;409.87;29.53;;;1.90;99.90;;;;;;5114594;28;20979;-68
2021/01/31 07:12:59;;;;;;;136.77;14.90;;;1.80;99.90;;;;;;5114870;28;20420;-68
2021/01/31 07:15:30;;;;;;;265.07;22.53;;;1.80;99.90;;;;;;5114888;28;20451;-68
2021/01/31 07:18:03;;;;;;;463.20;32.70;;;1.80;99.90;;;;;;5111693;28;20492;-65
2021/01/31 07:20:36;;;;;;;284.57;23.70;;;1.90;99.90;;;;;;5094465;28;20771;-65
2021/01/31 07:23:08;;;;;;;231.83;24.33;;;2.00;99.90;;;;;;5114000;28;20436;-66
2021/01/31 07:25:38;;;;;;;114.37;14.00;;;2.20;99.90;;;;;;5114178;28;20462;-65
2021/01/31 07:28:08;;;;;;;314.67;28.37;;;2.30;99.90;;;;;;5114269;28;20793;-66
2021/01/31 07:30:39;;;;;;;145.33;14.70;;;2.30;99.90;;;;;;5113526;28;20463;-66
2021/01/31 07:33:16;;;;;;;205.77;53.73;;;2.20;99.90;;;;;;5114221;27;20445;-66
2021/01/31 07:35:56;;;;;;;150.27;20.73;;;2.20;99.90;;;;;;5100858;28;20493;-66
2021/01/31 07:38:30;;;;;;;285.80;25.10;;;2.20;99.90;;;;;;5093361;28;20937;-65
2021/01/31 07:40:57;;;;;;;387.53;31.97;;;2.10;99.90;;;;;;5111935;28;20947;-65
2021/01/31 07:43:28;;;;;;;246.33;22.70;;;2.00;99.90;;;;;;5113835;28;20450;-66
2021/01/31 07:46:01;;;;;;;68.83;11.10;;;2.00;99.90;;;;;;5113347;28;20440;-66
2021/01/31 07:48:39;;;;;;;245.20;19.50;;;2.10;99.90;;;;;;5113776;28;20424;-66
2021/01/31 07:51:08;;;;;;;137.80;13.93;;;2.10;99.90;;;;;;5113412;28;20467;-67
2021/01/31 07:53:37;;;;;;;143.63;20.57;;;2.10;99.90;;;;;;5107074;28;20948;-67
2021/01/31 07:56:29;;;;;;;206.70;39.70;;;2.10;99.90;;;;;;5104284;28;20447;-67
2021/01/31 07:58:58;;;;;;;143.70;35.57;;;2.20;99.90;;;;;;5111697;28;20428;-67
2021/01/31 08:01:47;;;;;;;181.77;23.73;;;2.20;99.90;;;;;;5093024;28;20833;-67
2021/01/31 08:04:27;;;;;;;175.30;26.13;;;2.10;99.90;;;;;;5093184;28;20782;-67
2021/01/31 08:06:55;;;;;;;188.23;23.60;;;2.10;99.90;;;;;;5092756;28;20420;-67
2021/01/31 08:09:51;;;;;;;167.47;15.00;;;2.10;99.90;;;;;;5098740;28;20428;-67
2021/01/31 08:12:18;;;;;;;301.27;33.90;;;2.10;99.90;;;;;;5113111;28;20432;-67
2021/01/31 08:15:07;;;;;;;186.57;20.30;;;2.10;99.90;;;;;;5113408;28;20451;-67
2021/01/31 08:18:12;;;;;;;191.37;17.30;;;2.10;99.90;;;;;;5113525;28;21440;-67
2021/01/31 08:20:48;;;;;;;327.20;37.87;;;2.10;99.90;;;;;;5091033;28;20436;-67
2021/01/31 08:23:51;;;;;;;213.90;32.57;;;2.10;99.90;;;;;;5092627;28;20851;-67
2021/01/31 08:26:50;;;;;;;195.13;23.10;;;2.00;99.90;;;;;;5092724;28;20949;-68
2021/01/31 08:29:32;;;;;;;237.33;21.10;;;2.00;99.90;;;;;;5010179;28;20425;-67
2021/01/31 08:32:09;;;;;;;69.37;11.93;;;2.10;99.90;;;;;;5008500;28;20484;-67
2021/01/31 08:35:02;;;;;;;48.63;15.13;;;2.10;99.90;;;;;;5061089;28;20957;-67
2021/01/31 08:37:30;;;;;;;138.43;18.77;;;2.20;99.90;;;;;;5092479;28;20479;-67
2021/01/31 08:39:57;;;;;;;111.17;13.13;;;2.10;99.90;;;;;;5099764;28;20432;-67
2021/01/31 08:42:24;;;;;;;267.73;22.97;;;2.10;99.90;;;;;;5112387;28;20435;-66
2021/01/31 08:44:58;;;;;;;215.97;29.23;;;2.10;99.90;;;;;;5112598;28;20444;-66
2021/01/31 08:47:39;;;;;;;104.10;15.23;;;2.10;99.90;;;;;;5112597;28;20424;-66
2021/01/31 08:50:06;;;;;;;179.60;18.30;;;2.20;99.90;;;;;;5092246;28;20482;-67
2021/01/31 08:52:33;;;;;;;26.03;8.20;;;2.20;99.90;;;;;;5091895;28;20424;-67
2021/01/31 08:55:05;;;;;;;19.17;8.53;;;2.20;99.90;;;;;;5105239;28;20775;-67
2021/01/31 08:57:33;;;;;;;133.07;14.97;;;2.30;99.90;;;;;;5112352;28;20458;-67
2021/01/31 09:00:07;;;;;;;60.20;10.17;;;2.30;99.90;;;;;;5111996;28;20424;-67
2021/01/31 09:02:35;;;;;;;127.00;13.73;;;2.40;99.90;;;;;;5112333;28;20416;-67
2021/01/31 09:05:09;;;;;;;175.47;19.93;;;2.30;99.90;;;;;;5112073;28;20464;-67
2021/01/31 09:07:38;;;;;;;63.77;10.33;;;2.30;99.90;;;;;;5112250;28;20412;-67
2021/01/31 09:10:10;;;;;;;150.00;17.50;;;2.30;99.90;;;;;;5111818;28;20420;-66
2021/01/31 09:12:36;;;;;;;294.60;21.10;;;2.30;99.90;;;;;;5111948;28;20431;-67
2021/01/31 09:15:25;;;;;;;232.40;20.37;;;2.20;99.90;;;;;;5110379;28;20941;-67
2021/01/31 09:18:04;;;;;;;80.33;11.83;;;2.20;99.90;;;;;;5104905;28;20428;-67
2021/01/31 09:20:31;;;;;;;16.23;9.37;;;2.30;99.90;;;;;;5112297;28;20477;-67
2021/01/31 09:23:05;;;;;;;26.10;9.70;;;2.30;99.90;;;;;;5112008;28;20428;-67
2021/01/31 09:25:35;;;;;;;11.90;6.67;;;2.30;99.90;;;;;;5111701;28;20451;-66
2021/01/31 09:28:05;;;;;;;25.23;7.53;;;2.30;99.90;;;;;;5111987;28;20417;-67
2021/01/31 09:30:34;;;;;;;27.63;7.80;;;2.30;99.90;;;;;;5112171;28;20466;-67
2021/01/31 09:33:06;;;;;;;54.27;9.90;;;2.30;99.90;;;;;;5111753;28;20449;-67
2021/01/31 09:35:36;;;;;;;13.50;7.93;;;2.30;99.90;;;;;;5111709;28;20452;-67
2021/01/31 09:38:16;;;;;;;9.33;5.73;;;2.40;99.90;;;;;;5112147;28;20432;-67
2021/01/31 09:40:45;;;;;;;30.53;6.40;;;2.50;99.90;;;;;;5111415;28;20932;-67
2021/01/31 09:43:17;;;;;;;27.10;5.87;;;2.50;99.90;;;;;;5111736;28;20432;-66
2021/01/31 09:45:47;;;;;;;11.53;6.27;;;2.40;99.90;;;;;;5111655;28;20448;-66
2021/01/31 09:48:18;;;;;;;13.33;5.77;;;2.40;99.90;;;;;;5111773;28;20917;-67
2021/01/31 09:50:50;;;;;;;11.83;6.67;;;2.40;99.90;;;;;;5111608;28;20499;-66
2021/01/31 09:53:28;;;;;;;33.07;8.00;;;2.40;99.90;;;;;;5111569;28;20428;-67
2021/01/31 09:55:55;;;;;;;29.97;8.00;;;2.40;99.90;;;;;;5111195;28;20436;-67
2021/01/31 09:58:24;;;;;;;10.80;5.20;;;2.40;99.90;;;;;;5111549;28;20489;-67
2021/01/31 10:00:53;;;;;;;77.80;12.40;;;2.40;99.90;;;;;;5111357;28;20429;-67
2021/01/31 10:03:30;;;;;;;101.40;11.00;;;2.50;99.90;;;;;;5111401;28;20431;-67
2021/01/31 10:06:13;;;;;;;84.27;11.63;;;2.50;99.90;;;;;;5108873;28;20482;-66
2021/01/31 10:08:48;;;;;;;103.33;21.57;;;2.60;99.90;;;;;;5090139;28;20510;-67
2021/01/31 10:11:37;;;;;;;114.13;13.90;;;2.60;99.90;;;;;;5097800;28;20495;-67
2021/01/31 10:14:05;;;;;;;138.93;12.83;;;2.60;99.90;;;;;;5111044;28;20439;-66
2021/01/31 10:16:33;;;;;;;53.30;10.63;;;2.70;99.90;;;;;;5111027;28;20447;-67
2021/01/31 10:19:22;;;;;;;229.07;19.80;;;2.70;99.90;;;;;;5111040;28;20428;-66
2021/01/31 10:21:52;;;;;;;48.00;7.87;;;2.70;99.90;;;;;;5110914;28;20428;-67
2021/01/31 10:24:29;;;;;;;30.13;8.40;;;2.80;99.90;;;;;;5109961;28;20916;-67
2021/01/31 10:27:08;;;;;;;12.37;5.07;;;2.90;99.90;;;;;;5110691;28;20427;-67
2021/01/31 10:29:35;;;;;;;65.17;8.50;;;2.90;99.90;;;;;;5111077;28;20913;-66
2021/01/31 10:32:22;;;;;;;36.23;7.00;;;2.90;99.90;;;;;;5110824;28;20976;-67
2021/01/31 10:34:49;;;;;;;41.17;7.07;;;2.80;99.90;;;;;;5110450;28;20509;-68
2021/01/31 10:37:19;;;;;;;44.70;10.53;;;2.80;99.90;;;;;;5110852;28;20952;-67
2021/01/31 10:39:46;;;;;;;35.53;11.20;;;2.80;99.90;;;;;;5110843;28;20447;-67
2021/01/31 10:42:14;;;;;;;17.90;6.00;;;2.80;99.90;;;;;;5110488;28;20485;-67
2021/01/31 10:44:41;;;;;;;30.50;7.20;;;2.80;99.90;;;;;;5110738;28;20476;-67
2021/01/31 10:47:07;;;;;;;15.70;9.03;;;2.90;99.90;;;;;;5110868;28;20428;-66
2021/01/31 10:49:34;;;;;;;51.67;28.30;;;2.90;99.90;;;;;;5110624;28;20436;-67
2021/01/31 10:52:02;;;;;;;33.40;11.50;;;3.00;99.90;;;;;;5110738;28;20841;-67
2021/01/31 10:54:29;;;;;;;41.03;22.30;;;3.00;99.90;;;;;;5110025;28;20509;-67
2021/01/31 10:56:56;;;;;;;24.20;13.57;;;3.10;99.90;;;;;;5110636;28;20432;-67
2021/01/31 10:59:22;;;;;;;16.60;8.67;;;3.10;99.90;;;;;;5110567;28;20777;-66
2021/01/31 11:01:50;;;;;;;33.20;16.53;;;3.00;99.90;;;;;;5110434;28;20424;-66
2021/01/31 11:04:19;;;;;;;25.70;11.17;;;3.00;99.90;;;;;;5110439;28;20424;-66
2021/01/31 11:06:46;;;;;;;26.73;7.60;;;2.90;99.90;;;;;;5110978;28;20815;-66
2021/01/31 11:09:15;;;;;;;14.67;8.07;;;2.90;99.90;;;;;;5110900;28;20440;-67
2021/01/31 11:11:42;;;;;;;31.87;9.17;;;2.90;99.90;;;;;;5110163;28;20459;-66
2021/01/31 11:14:09;;;;;;;18.93;11.27;;;2.90;99.90;;;;;;5110659;28;20419;-66
2021/01/31 11:16:38;;;;;;;21.23;10.57;;;2.90;99.90;;;;;;5110562;28;20449;-66
2021/01/31 11:19:05;;;;;;;15.00;9.33;;;2.90;99.90;;;;;;5110576;28;20442;-66
2021/01/31 11:21:31;;;;;;;14.97;8.47;;;2.90;99.90;;;;;;5111505;28;20909;-66
2021/01/31 11:24:00;;;;;;;22.07;8.27;;;3.00;99.90;;;;;;5114291;28;20436;-67
2021/01/31 11:26:28;;;;;;;49.60;26.80;;;3.00;99.90;;;;;;5113918;28;20444;-66
2021/01/31 11:28:55;;;;;;;39.33;16.33;;;3.00;99.90;;;;;;5114206;28;20428;-66
2021/01/31 11:31:23;;;;;;;35.23;15.50;;;3.10;99.90;;;;;;5113971;28;20499;-66
2021/01/31 11:33:51;;;;;;;18.50;10.70;;;3.20;99.90;;;;;;5114193;28;20792;-66
2021/01/31 11:36:19;;;;;;;19.07;7.53;;;3.20;99.90;;;;;;5114016;28;20464;-66
2021/01/31 11:38:46;;;;;;;33.47;9.57;;;3.30;99.90;;;;;;5114116;28;20420;-66
2021/01/31 11:41:13;;;;;;;13.33;7.50;;;3.40;99.90;;;;;;5112751;28;20485;-66
2021/01/31 11:43:43;;;;;;;71.50;38.70;;;3.40;99.90;;;;;;5113805;28;20444;-66
2021/01/31 11:46:10;;;;;;;16.47;9.63;;;3.40;99.90;;;;;;5114055;28;20471;-66
2021/01/31 11:48:39;;;;;;;17.13;7.37;;;3.50;99.90;;;;;;5113786;28;20444;-66
2021/01/31 11:51:06;;;;;;;17.03;8.40;;;3.50;99.90;;;;;;5113671;28;20460;-67
2021/01/31 11:53:34;;;;;;;15.13;8.30;;;3.50;99.90;;;;;;5113673;28;20443;-67
2021/01/31 11:56:00;;;;;;;22.03;14.60;;;3.50;99.90;;;;;;5113493;28;20479;-67
2021/01/31 11:58:27;;;;;;;13.07;8.03;;;3.50;99.90;;;;;;5112979;28;20425;-66
2021/01/31 12:00:55;;;;;;;11.50;6.27;;;3.60;99.90;;;;;;5108064;28;20423;-67
2021/01/31 12:03:22;;;;;;;9.03;6.30;;;3.60;99.90;;;;;;5113358;28;20423;-67
2021/01/31 12:05:51;;;;;;;9.20;4.80;;;3.60;99.90;;;;;;5113499;28;20432;-67
2021/01/31 12:08:18;;;;;;;10.00;5.10;;;3.70;99.90;;;;;;5113481;28;20416;-66
2021/01/31 12:10:47;;;;;;;11.80;8.03;;;3.60;99.90;;;;;;5112903;28;20988;-66
2021/01/31 12:13:14;;;;;;;17.67;11.70;;;3.70;99.90;;;;;;5113318;28;20494;-67
2021/01/31 12:15:43;;;;;;;13.57;8.00;;;3.70;99.90;;;;;;5113403;28;20956;-67
2021/01/31 12:18:11;;;;;;;7.30;5.53;;;3.80;99.90;;;;;;5113192;28;20425;-67
2021/01/31 12:20:39;;;;;;;9.40;4.60;;;3.80;99.90;;;;;;5113091;28;20801;-67
2021/01/31 12:23:06;;;;;;;12.27;8.07;;;3.80;99.90;;;;;;5113076;28;20487;-66
2021/01/31 12:25:32;;;;;;;16.97;10.53;;;3.80;99.90;;;;;;5112747;28;20463;-67
2021/01/31 12:27:59;;;;;;;28.40;6.30;;;3.80;99.90;;;;;;5113213;28;20424;-67
2021/01/31 12:30:28;;;;;;;9.23;4.70;;;3.80;99.90;;;;;;5112952;28;20424;-67
2021/01/31 12:32:55;;;;;;;9.83;5.23;;;3.80;99.90;;;;;;5111908;28;20913;-67
2021/01/31 12:35:23;;;;;;;14.57;5.60;;;3.80;99.90;;;;;;5112785;28;20463;-67
2021/01/31 12:37:52;;;;;;;13.60;6.37;;;3.70;99.90;;;;;;5112874;28;20428;-67
2021/01/31 12:40:20;;;;;;;11.33;5.37;;;3.80;99.90;;;;;;5112886;28;20424;-67
2021/01/31 12:42:47;;;;;;;26.97;6.77;;;3.90;99.90;;;;;;5112396;28;20425;-67
2021/01/31 12:45:18;;;;;;;36.03;9.77;;;3.80;99.90;;;;;;5112587;28;20447;-67
2021/01/31 12:47:45;;;;;;;35.70;8.80;;;3.90;99.90;;;;;;5112712;28;20420;-67
2021/01/31 12:50:12;;;;;;;38.97;10.00;;;3.90;99.90;;;;;;5112239;28;20424;-67
2021/01/31 12:52:42;;;;;;;45.30;14.70;;;3.80;99.90;;;;;;5112679;28;20423;-66
2021/01/31 12:55:13;;;;;;;17.17;9.57;;;3.80;99.90;;;;;;5111433;28;21017;-66
2021/01/31 12:57:42;;;;;;;13.33;7.10;;;3.80;99.90;;;;;;5112369;28;20444;-67
2021/01/31 13:00:12;;;;;;;50.73;11.20;;;3.80;99.90;;;;;;5112257;28;20673;-67